Time;durP1;ratioP1;P1;durP2;ratioP2;P2;SDS_P1;SDS_P2;PMS_P1;PMS_P2;Temp;Humidity;BMP_temperature;BMP_pressure;BME280_temperature;BME280_humidity;BME280_pressure;Samples;Min_cycle;Max_cycle;Signal;HPM_P1;HPM_P2
2022/12/18 00:00:58;;;;;;;;;;;;;;;13.94;64.90;99370.56;5056120;28;20416;-76
2022/12/18 00:03:23;;;;;;;;;;;;;;;13.94;64.68;99367.94;5054873;28;19917;-75
2022/12/18 00:05:52;;;;;;;;;;;;;;;13.97;64.54;99372.09;5054783;28;20371;-76
2022/12/18 00:08:17;;;;;;;;;;;;;;;13.99;64.23;99378.06;5038139;28;19966;-77
2022/12/18 00:10:42;;;;;;;;;;;;;;;14.00;64.34;99378.91;5038146;28;19917;-76
2022/12/18 00:13:08;;;;;;;;;;;;;;;14.01;64.14;99385.81;5038712;28;20019;-75
2022/12/18 00:15:34;;;;;;;;;;;;;;;14.03;64.20;99402.28;5054452;28;19917;-75
2022/12/18 00:17:59;;;;;;;;;;;;;;;14.04;64.08;99396.06;5056183;28;19924;-75
2022/12/18 00:20:25;;;;;;;;;;;;;;;14.03;64.08;99405.75;5054492;28;19921;-75
2022/12/18 00:22:51;;;;;;;;;;;;;;;14.06;63.75;99413.38;5037742;28;20307;-75
2022/12/18 00:25:16;;;;;;;;;;;;;;;14.05;63.95;99422.19;5037830;28;19924;-75
2022/12/18 00:27:42;;;;;;;;;;;;;;;14.05;63.79;99422.19;5054846;28;19916;-76
2022/12/18 00:30:07;;;;;;;;;;;;;;;14.06;63.60;99433.56;5054329;28;19924;-76
2022/12/18 00:32:33;;;;;;;;;;;;;;;14.07;63.83;99429.94;5054912;28;20425;-76
2022/12/18 00:34:58;;;;;;;;;;;;;;;14.07;63.76;99433.44;5055562;28;19931;-77
2022/12/18 00:37:23;;;;;;;;;;;;;;;14.07;63.63;99438.69;5038160;28;19917;-76
2022/12/18 00:39:49;;;;;;;;;;;;;;;14.08;63.66;99457.88;5054326;28;19924;-76
2022/12/18 00:44:58;;;;;;;;;;;;;;;14.07;63.41;99474.56;5054427;28;19924;-76
2022/12/18 00:47:24;;;;;;;;;;;;;;;14.05;63.40;99466.00;5054511;28;19921;-74
2022/12/18 00:49:49;;;;;;;;;;;;;;;14.04;63.39;99454.69;5054848;28;20380;-75
2022/12/18 00:52:14;;;;;;;;;;;;;;;14.03;63.52;99445.13;5055702;28;20015;-76
2022/12/18 00:54:39;;;;;;;;;;;;;;;14.03;63.59;99425.91;5054856;28;19917;-75
2022/12/18 00:57:05;;;;;;;;;;;;;;;14.04;63.60;99435.44;5054991;28;19939;-76
2022/12/18 00:59:30;;;;;;;;;;;;;;;14.00;63.48;99432.25;5056153;28;20350;-76
2022/12/18 01:01:55;;;;;;;;;;;;;;;14.00;63.52;99426.16;5036159;28;19917;-76
2022/12/18 01:04:21;;;;;;;;;;;;;;;13.98;63.58;99422.81;5054010;28;19916;-76
2022/12/18 01:06:46;;;;;;;;;;;;;;;13.97;63.83;99415.91;5037241;28;19916;-76
2022/12/18 01:09:11;;;;;;;;;;;;;;;13.96;63.77;99416.84;5054038;28;19917;-75
2022/12/18 01:11:37;;;;;;;;;;;;;;;13.94;63.82;99423.03;5055100;28;19916;-75
2022/12/18 01:14:02;;;;;;;;;;;;;;;13.93;64.00;99420.53;5037105;28;20302;-75
2022/12/18 01:16:27;;;;;;;;;;;;;;;13.92;63.87;99416.28;5055210;28;20054;-74
2022/12/18 01:18:53;;;;;;;;;;;;;;;13.91;63.98;99415.41;5054007;28;20023;-75
2022/12/18 01:21:19;;;;;;;;;;;;;;;13.88;63.91;99423.56;5054697;28;19917;-75
2022/12/18 01:23:44;;;;;;;;;;;;;;;13.86;63.96;99422.81;5054009;28;20401;-75
2022/12/18 01:26:11;;;;;;;;;;;;;;;13.85;63.92;99436.91;5053983;28;19920;-74
2022/12/18 01:28:36;;;;;;;;;;;;;;;13.85;63.90;99438.69;5053651;28;19923;-74
2022/12/18 01:31:12;;;;;;;;;;;;;;;13.84;63.80;99447.53;5053487;28;19917;-74
2022/12/18 01:33:37;;;;;;;;;;;;;;;13.82;63.80;99447.66;5053596;28;19916;-74
2022/12/18 01:36:02;;;;;;;;;;;;;;;13.82;63.98;99450.28;5054600;28;19929;-74
2022/12/18 01:38:28;;;;;;;;;;;;;;;13.82;63.75;99457.31;5053044;28;19927;-74
2022/12/18 01:40:57;;;;;;;;;;;;;;;13.81;63.83;99453.03;5053255;28;19966;-75
2022/12/18 01:43:40;;;;;;;;;;;;;;;13.80;63.86;99453.97;5053184;28;19956;-74
2022/12/18 01:46:05;;;;;;;;;;;;;;;13.79;63.76;99447.91;5053790;28;20367;-74
2022/12/18 01:48:31;;;;;;;;;;;;;;;13.77;63.49;99446.34;5054329;28;19975;-74
2022/12/18 01:50:56;;;;;;;;;;;;;;;13.78;63.56;99448.84;5054385;28;19924;-74
2022/12/18 01:53:22;;;;;;;;;;;;;;;13.75;63.74;99446.47;5053547;28;19917;-75
2022/12/18 01:55:48;;;;;;;;;;;;;;;13.73;63.67;99451.00;5053506;28;20310;-74
2022/12/18 01:58:13;;;;;;;;;;;;;;;13.72;63.79;99446.69;5054348;28;20035;-74
2022/12/18 02:00:39;;;;;;;;;;;;;;;13.69;63.79;99453.00;5057258;28;19974;-74
2022/12/18 02:03:04;;;;;;;;;;;;;;;13.67;63.92;99452.28;5044535;28;19920;-75
2022/12/18 02:05:34;;;;;;;;;;;;;;;13.65;63.93;99456.00;5054604;28;19917;-75
2022/12/18 02:08:03;;;;;;;;;;;;;;;13.63;63.61;99455.28;5053034;28;19917;-74
2022/12/18 02:10:35;;;;;;;;;;;;;;;13.59;63.78;99459.94;5052824;28;19923;-74
2022/12/18 02:13:20;;;;;;;;;;;;;;;13.57;64.02;99460.06;5052964;28;20373;-75
2022/12/18 02:15:55;;;;;;;;;;;;;;;13.55;64.09;99455.88;5052568;28;19952;-75
2022/12/18 02:18:21;;;;;;;;;;;;;;;13.53;63.82;99450.72;5054350;28;19917;-75
2022/12/18 02:20:52;;;;;;;;;;;;;;;13.52;64.03;99458.72;5052599;28;19917;-76
2022/12/18 02:23:24;;;;;;;;;;;;;;;13.50;64.05;99450.16;5052486;28;20346;-75
2022/12/18 02:26:08;;;;;;;;;;;;;;;13.49;64.06;99445.84;5052469;28;20025;-74
2022/12/18 02:28:35;;;;;;;;;;;;;;;13.46;63.97;99451.34;5053755;28;19923;-75
2022/12/18 02:31:00;;;;;;;;;;;;;;;13.47;63.93;99458.25;5052415;28;19917;-75
2022/12/18 02:33:27;;;;;;;;;;;;;;;13.45;63.88;99455.75;5035667;28;19974;-76
2022/12/18 02:35:52;;;;;;;;;;;;;;;13.42;63.55;99455.97;5051552;28;19925;-76
2022/12/18 02:38:17;;;;;;;;;;;;;;;13.39;63.70;99453.59;5052349;28;20011;-76
2022/12/18 02:40:42;;;;;;;;;;;;;;;13.37;63.87;99455.50;5052385;28;19917;-75
2022/12/18 02:43:09;;;;;;;;;;;;;;;13.34;63.97;99467.06;5053392;28;19974;-76
2022/12/18 02:45:34;;;;;;;;;;;;;;;13.32;63.85;99470.72;5035135;28;19956;-76
2022/12/18 02:47:59;;;;;;;;;;;;;;;13.31;63.96;99475.13;5036062;28;20387;-75
2022/12/18 02:50:50;;;;;;;;;;;;;;;13.30;63.75;99476.09;5035268;28;19975;-77
2022/12/18 02:53:30;;;;;;;;;;;;;;;13.27;63.77;99475.50;5035434;28;19928;-76
2022/12/18 02:56:03;;;;;;;;;;;;;;;13.23;63.83;99467.00;5052024;28;19921;-75
2022/12/18 02:58:29;;;;;;;;;;;;;;;13.21;64.05;99468.91;5035264;28;19917;-76
2022/12/18 03:01:06;;;;;;;;;;;;;;;13.19;63.98;99478.69;5052959;28;19928;-76
2022/12/18 03:03:34;;;;;;;;;;;;;;;13.16;64.11;99473.69;5052955;28;20390;-76
2022/12/18 03:06:10;;;;;;;;;;;;;;;13.13;64.04;99471.28;5051778;28;19974;-76
2022/12/18 03:08:43;;;;;;;;;;;;;;;13.11;64.09;99474.03;5051903;28;20019;-76
2022/12/18 03:11:08;;;;;;;;;;;;;;;13.09;64.20;99478.53;5035360;28;19917;-76
2022/12/18 03:13:44;;;;;;;;;;;;;;;13.06;64.12;99483.16;5034864;28;20457;-75
2022/12/18 03:16:10;;;;;;;;;;;;;;;13.06;64.18;99478.75;5034556;28;20303;-75
2022/12/18 03:18:37;;;;;;;;;;;;;;;13.05;64.22;99476.28;5035551;28;19917;-75
2022/12/18 03:21:03;;;;;;;;;;;;;;;13.02;64.03;99472.91;5035179;28;20449;-76
2022/12/18 03:23:29;;;;;;;;;;;;;;;13.02;64.25;99477.31;5051316;28;20039;-75
2022/12/18 03:25:56;;;;;;;;;;;;;;;13.01;64.01;99481.75;5051558;28;19982;-75
2022/12/18 03:28:21;;;;;;;;;;;;;;;13.01;64.00;99486.13;5034625;28;19917;-76
2022/12/18 03:30:47;;;;;;;;;;;;;;;13.00;64.04;99481.84;5051404;28;19946;-75
2022/12/18 03:33:25;;;;;;;;;;;;;;;12.99;63.95;99490.66;5034832;28;20394;-75
2022/12/18 03:35:50;;;;;;;;;;;;;;;12.98;64.03;99489.81;5050952;28;19931;-76
2022/12/18 03:38:15;;;;;;;;;;;;;;;12.98;64.25;99497.69;5034516;28;19917;-75
2022/12/18 03:40:52;;;;;;;;;;;;;;;12.99;64.12;99501.13;5051149;28;19917;-75
2022/12/18 03:43:36;;;;;;;;;;;;;;;12.98;64.02;99515.19;5052429;28;20016;-76
2022/12/18 03:46:03;;;;;;;;;;;;;;;12.99;63.89;99516.88;5052517;28;20011;-75
2022/12/18 03:48:32;;;;;;;;;;;;;;;13.00;64.10;99518.53;5034327;28;20383;-77
2022/12/18 03:50:58;;;;;;;;;;;;;;;13.00;64.02;99526.41;5051144;28;19924;-76
2022/12/18 03:53:26;;;;;;;;;;;;;;;13.01;64.03;99528.06;5051285;28;19960;-75
2022/12/18 03:55:51;;;;;;;;;;;;;;;13.01;63.84;99523.69;5052216;28;19924;-75
2022/12/18 03:58:18;;;;;;;;;;;;;;;13.03;63.94;99529.63;5051203;28;20314;-76
2022/12/18 04:00:43;;;;;;;;;;;;;;;13.04;63.62;99543.56;5051395;28;19964;-76
2022/12/18 04:03:08;;;;;;;;;;;;;;;13.07;63.77;99543.34;5051146;28;19948;-76
2022/12/18 04:05:34;;;;;;;;;;;;;;;13.10;63.61;99552.78;5051144;28;19927;-76
2022/12/18 04:07:59;;;;;;;;;;;;;;;13.10;63.25;99553.59;5051231;28;19929;-76
2022/12/18 04:10:24;;;;;;;;;;;;;;;13.13;63.41;99563.03;5050937;28;20307;-75
2022/12/18 04:12:50;;;;;;;;;;;;;;;13.15;63.28;99566.38;5051515;28;19940;-76
2022/12/18 04:15:15;;;;;;;;;;;;;;;13.16;62.99;99568.88;5050969;28;20414;-76
2022/12/18 04:17:43;;;;;;;;;;;;;;;13.18;63.03;99569.59;5052119;28;19917;-76
2022/12/18 04:20:08;;;;;;;;;;;;;;;13.21;62.85;99571.97;5034152;28;19983;-76
2022/12/18 04:22:35;;;;;;;;;;;;;;;13.23;63.05;99584.16;5050713;28;19924;-75
2022/12/18 04:25:00;;;;;;;;;;;;;;;13.25;62.73;99583.09;5050670;28;19924;-75
2022/12/18 04:27:25;;;;;;;;;;;;;;;13.27;62.87;99586.44;5051685;28;19917;-76
2022/12/18 04:29:51;;;;;;;;;;;;;;;13.28;62.71;99585.47;5050427;28;19917;-78
2022/12/18 04:32:16;;;;;;;;;;;;;;;13.30;62.64;99583.59;5049320;28;19990;-75
2022/12/18 04:34:41;;;;;;;;;;;;;;;13.33;62.48;99593.03;5050280;28;19990;-76
2022/12/18 04:37:07;;;;;;;;;;;;;;;13.34;62.78;99597.34;5035837;28;20369;-77
2022/12/18 04:39:32;;;;;;;;;;;;;;;13.35;62.47;99599.03;5053231;28;19986;-77
2022/12/18 04:41:57;;;;;;;;;;;;;;;13.36;62.64;99600.66;5036252;28;20379;-78
2022/12/18 04:44:22;;;;;;;;;;;;;;;13.36;62.57;99592.81;5054181;28;19917;-77
2022/12/18 04:46:48;;;;;;;;;;;;;;;13.36;62.38;99588.41;5053976;28;19924;-78
2022/12/18 04:49:14;;;;;;;;;;;;;;;13.37;62.34;99602.34;5052805;28;19960;-76
2022/12/18 04:51:39;;;;;;;;;;;;;;;13.36;62.26;99612.03;5036116;28;19975;-77
2022/12/18 04:54:04;;;;;;;;;;;;;;;13.38;62.14;99622.41;5052593;28;19921;-77
2022/12/18 04:56:30;;;;;;;;;;;;;;;13.36;62.27;99616.41;5053915;28;19921;-76
2022/12/18 04:58:55;;;;;;;;;;;;;;;13.36;62.13;99622.50;5037879;28;20026;-75
2022/12/18 05:01:21;;;;;;;;;;;;;;;13.36;62.25;99630.38;5037339;28;19925;-77
2022/12/18 05:03:46;;;;;;;;;;;;;;;13.37;62.04;99625.97;5037676;28;19916;-77
2022/12/18 05:06:11;;;;;;;;;;;;;;;13.36;62.05;99625.13;5054163;28;20387;-77
2022/12/18 05:08:36;;;;;;;;;;;;;;;13.37;61.75;99631.19;5055476;28;20003;-77
2022/12/18 05:11:03;;;;;;;;;;;;;;;13.36;61.93;99640.00;5054179;28;20015;-75
2022/12/18 05:13:28;;;;;;;;;;;;;;;13.36;61.44;99637.38;5055737;28;19924;-75
2022/12/18 05:15:54;;;;;;;;;;;;;;;13.34;61.61;99644.53;5055186;28;20283;-76
2022/12/18 05:18:19;;;;;;;;;;;;;;;13.33;61.54;99643.72;5061843;28;19967;-76
2022/12/18 05:20:44;;;;;;;;;;;;;;;13.34;61.50;99653.22;5061400;28;19925;-76
2022/12/18 05:23:09;;;;;;;;;;;;;;;13.32;61.59;99656.91;5055189;28;19967;-77
2022/12/18 05:25:35;;;;;;;;;;;;;;;13.33;61.59;99659.44;5053851;28;19978;-76
2022/12/18 05:28:00;;;;;;;;;;;;;;;13.33;61.51;99659.44;5054324;28;20348;-76
2022/12/18 05:30:25;;;;;;;;;;;;;;;13.34;61.33;99655.03;5055138;28;20363;-77
2022/12/18 05:32:51;;;;;;;;;;;;;;;13.33;61.04;99666.44;5053684;28;19923;-77
2022/12/18 05:35:16;;;;;;;;;;;;;;;13.34;61.21;99662.91;5053160;28;19931;-77
2022/12/18 05:37:41;;;;;;;;;;;;;;;13.33;61.27;99669.06;5053732;28;19917;-77
2022/12/18 05:40:07;;;;;;;;;;;;;;;13.34;61.42;99670.75;5054629;28;19956;-76
2022/12/18 05:42:32;;;;;;;;;;;;;;;13.34;61.00;99681.25;5053220;28;19917;-77
2022/12/18 05:44:57;;;;;;;;;;;;;;;13.34;61.12;99668.97;5053354;28;19999;-76
2022/12/18 05:47:23;;;;;;;;;;;;;;;13.36;60.89;99679.34;5053144;28;20387;-76
2022/12/18 05:49:48;;;;;;;;;;;;;;;13.36;60.95;99676.72;5053369;28;19917;-75
2022/12/18 05:52:13;;;;;;;;;;;;;;;13.36;60.86;99681.97;5054279;28;19924;-78
2022/12/18 05:54:39;;;;;;;;;;;;;;;13.36;60.66;99680.19;5036318;28;19916;-78
2022/12/18 05:57:04;;;;;;;;;;;;;;;13.37;60.64;99683.66;5036728;28;19920;-77
2022/12/18 05:59:30;;;;;;;;;;;;;;;13.38;60.71;99690.59;5036493;28;20411;-77
2022/12/18 06:01:55;;;;;;;;;;;;;;;13.37;60.48;99689.72;5036518;28;19917;-76
2022/12/18 06:04:20;;;;;;;;;;;;;;;13.38;60.40;99685.34;5053449;28;19975;-76
2022/12/18 06:06:47;;;;;;;;;;;;;;;13.37;60.34;99697.59;5036445;28;19917;-77
2022/12/18 06:09:12;;;;;;;;;;;;;;;13.37;60.26;99692.34;5053095;28;20319;-77
2022/12/18 06:11:37;;;;;;;;;;;;;;;13.37;60.08;99705.47;5053088;28;19916;-77
2022/12/18 06:14:03;;;;;;;;;;;;;;;13.39;60.15;99707.97;5052977;28;19924;-76
2022/12/18 06:16:29;;;;;;;;;;;;;;;13.38;59.79;99699.28;5052925;28;20342;-76
2022/12/18 06:19:00;;;;;;;;;;;;;;;13.38;59.69;99706.31;5053258;28;20532;-77
2022/12/18 06:21:26;;;;;;;;;;;;;;;13.38;59.48;99712.38;5052510;28;19955;-76
2022/12/18 06:23:51;;;;;;;;;;;;;;;13.38;59.52;99716.81;5036083;28;19971;-77
2022/12/18 06:26:17;;;;;;;;;;;;;;;13.37;59.23;99715.13;5052695;28;19956;-77
2022/12/18 06:28:42;;;;;;;;;;;;;;;13.37;59.07;99726.44;5035727;28;20424;-76
2022/12/18 06:31:07;;;;;;;;;;;;;;;13.38;58.98;99733.38;5052270;28;19917;-75
2022/12/18 06:33:33;;;;;;;;;;;;;;;13.38;58.55;99735.16;5053730;28;20284;-75
2022/12/18 06:36:02;;;;;;;;;;;;;;;13.37;58.60;99741.34;5035356;28;19924;-80
2022/12/18 06:38:28;;;;;;;;;;;;;;;13.37;58.34;99744.78;5052556;28;20341;-79
2022/12/18 06:40:53;;;;;;;;;;;;;;;13.38;58.52;99745.66;5052167;28;19924;-77
2022/12/18 06:43:18;;;;;;;;;;;;;;;13.38;58.28;99756.16;5053313;28;20008;-77
2022/12/18 06:45:44;;;;;;;;;;;;;;;13.39;58.34;99752.56;5051692;28;19917;-77
2022/12/18 06:48:09;;;;;;;;;;;;;;;13.39;58.24;99765.66;5035058;28;20309;-77
2022/12/18 06:50:34;;;;;;;;;;;;;;;13.39;58.03;99763.91;5033791;28;19990;-77
2022/12/18 06:52:59;;;;;;;;;;;;;;;13.40;57.91;99769.97;5050144;28;20360;-77
2022/12/18 06:55:25;;;;;;;;;;;;;;;13.39;57.70;99777.00;5033798;28;20019;-77
2022/12/18 06:57:50;;;;;;;;;;;;;;;13.39;57.76;99778.78;5049178;28;19921;-76
2022/12/18 07:00:16;;;;;;;;;;;;;;;13.40;57.73;99783.09;5033884;28;19923;-78
2022/12/18 07:02:41;;;;;;;;;;;;;;;13.40;57.73;99788.34;5051231;28;19921;-77
2022/12/18 07:05:07;;;;;;;;;;;;;;;13.41;57.50;99797.03;5034029;28;20391;-77
2022/12/18 07:07:33;;;;;;;;;;;;;;;13.40;57.17;99804.06;5034963;28;19956;-78
2022/12/18 07:09:58;;;;;;;;;;;;;;;13.40;57.26;99811.94;5051994;28;19917;-77
2022/12/18 07:12:23;;;;;;;;;;;;;;;13.39;57.28;99805.88;5034951;28;20287;-77
2022/12/18 07:14:49;;;;;;;;;;;;;;;13.39;57.35;99805.88;5051500;28;19917;-78
2022/12/18 07:17:14;;;;;;;;;;;;;;;13.41;56.95;99812.75;5050621;28;19925;-77
2022/12/18 07:19:39;;;;;;;;;;;;;;;13.40;56.83;99811.94;5031539;28;19917;-77
2022/12/18 07:22:05;;;;;;;;;;;;;;;13.37;56.85;99804.28;5015092;28;20452;-77
2022/12/18 07:24:30;;;;;;;;;;;;;;;13.42;56.79;99810.03;5030985;28;19923;-78
2022/12/18 07:26:56;;;;;;;;;;;;;;;13.42;56.69;99820.53;5031831;28;20356;-78
2022/12/18 07:29:21;;;;;;;;;;;;;;;13.42;56.94;99820.53;5031867;28;19924;-77
2022/12/18 07:31:47;;;;;;;;;;;;;;;13.45;56.72;99824.72;5032729;28;19917;-77
2022/12/18 07:34:12;;;;;;;;;;;;;;;13.45;56.80;99817.69;5031602;28;19917;-77
2022/12/18 07:36:38;;;;;;;;;;;;;;;13.46;56.70;99815.91;5014822;28;19925;-78
2022/12/18 07:39:03;;;;;;;;;;;;;;;13.47;56.47;99826.31;5015135;28;20011;-77
2022/12/18 07:41:28;;;;;;;;;;;;;;;13.47;56.54;99833.31;5040783;28;20036;-77
2022/12/18 07:43:53;;;;;;;;;;;;;;;13.46;56.29;99829.88;5051249;28;19923;-75
2022/12/18 07:46:19;;;;;;;;;;;;;;;13.62;64.71;99834.03;5040079;28;19917;-80
2022/12/18 07:48:44;;;;;;;;;;;;;;;13.80;63.59;99827.44;5052309;28;19921;-76
2022/12/18 07:51:12;;;;;;;;;;;;;;;13.82;62.00;99829.94;5052588;28;19917;-75
2022/12/18 07:53:37;;;;;;;;;;;;;;;13.93;65.79;99833.47;5034857;28;19921;-75
2022/12/18 07:56:04;;;;;;;;;;;;;;;13.93;63.69;99836.09;5051149;28;20486;-81
2022/12/18 07:58:30;;;;;;;;;;;;;;;13.90;61.94;99835.50;5034259;28;19962;-79
2022/12/18 08:01:02;;;;;;;;;;;;;;;13.85;60.89;99832.34;5051313;28;19976;-82
2022/12/18 08:03:27;;;;;;;;;;;;;;;13.86;62.96;99837.50;5051183;28;19917;-77
2022/12/18 08:05:52;;;;;;;;;;;;;;;13.83;61.16;99850.84;5051053;28;19921;-78
2022/12/18 08:08:18;;;;;;;;;;;;;;;13.81;60.46;99851.91;5051449;28;19973;-76
2022/12/18 08:10:43;;;;;;;;;;;;;;;13.78;60.08;99857.38;5035980;28;19917;-79
2022/12/18 08:13:08;;;;;;;;;;;;;;;13.76;59.86;99865.38;5055219;28;20288;-79
2022/12/18 08:15:34;;;;;;;;;;;;;;;13.74;59.03;99860.22;5055108;28;19924;-85
2022/12/18 08:17:59;;;;;;;;;;;;;;;13.71;59.23;99855.19;5037814;28;19917;-77
2022/12/18 08:20:24;;;;;;;;;;;;;;;13.68;58.45;99868.53;5055728;28;19921;-80
2022/12/18 08:22:49;;;;;;;;;;;;;;;13.66;58.59;99875.69;5038214;28;19970;-77
2022/12/18 08:25:15;;;;;;;;;;;;;;;13.75;63.24;99877.63;5054944;28;19921;-81
2022/12/18 08:27:40;;;;;;;;;;;;;;;13.75;61.25;99877.63;5033902;28;20580;-77
2022/12/18 08:30:06;;;;;;;;;;;;;;;13.73;60.55;99878.69;5034337;28;19923;-82
2022/12/18 08:32:32;;;;;;;;;;;;;;;13.71;59.75;99881.44;5034356;28;19924;-80
2022/12/18 08:34:58;;;;;;;;;;;;;;;13.69;59.28;99885.09;5033947;28;19979;-75
2022/12/18 08:37:23;;;;;;;;;;;;;;;13.66;58.78;99878.31;5041146;28;19924;-78
2022/12/18 08:39:49;;;;;;;;;;;;;;;13.65;58.74;99881.03;5027688;28;19916;-81
2022/12/18 08:44:58;;;;;;;;;;;;;;;13.63;58.10;99875.91;5056069;28;19932;-70
2022/12/18 08:47:23;;;;;;;;;;;;;;;13.63;57.80;99875.91;5054733;28;19916;-71
2022/12/18 08:49:49;;;;;;;;;;;;;;;13.64;57.88;99874.09;5053527;28;19923;-72
2022/12/18 08:52:14;;;;;;;;;;;;;;;13.66;57.79;99877.44;5054915;28;19921;-72
2022/12/18 08:54:39;;;;;;;;;;;;;;;13.67;57.18;99881.75;5054420;28;20031;-70
2022/12/18 08:57:04;;;;;;;;;;;;;;;13.66;57.33;99890.56;5054444;28;19921;-69
2022/12/18 08:59:30;;;;;;;;;;;;;;;13.66;56.86;99895.81;5053499;28;20302;-70
2022/12/18 09:01:55;;;;;;;;;;;;;;;13.85;67.81;99895.34;5053656;28;19921;-83
2022/12/18 09:04:21;;;;;;;;;;;;;;;14.32;70.06;99906.81;5053424;28;19925;-72
2022/12/18 09:06:46;;;;;;;;;;;;;;;14.31;67.56;99902.53;5054205;28;20450;-76
2022/12/18 09:09:11;;;;;;;;;;;;;;;14.29;64.97;99904.41;5054539;28;20414;-74
2022/12/18 09:11:37;;;;;;;;;;;;;;;14.23;63.60;99904.84;5051906;28;20302;-71
2022/12/18 09:14:02;;;;;;;;;;;;;;;14.18;62.89;99907.00;5053481;28;20379;-71
2022/12/18 09:16:27;;;;;;;;;;;;;;;14.12;62.13;99910.88;5036269;28;19943;-77
2022/12/18 09:18:59;;;;;;;;;;;;;;;14.05;61.59;99913.13;5052485;28;20350;-75
2022/12/18 09:21:24;;;;;;;;;;;;;;;14.02;61.32;99917.75;5035261;28;19921;-78
2022/12/18 09:23:50;;;;;;;;;;;;;;;13.98;61.10;99913.66;5035763;28;20367;-78
2022/12/18 09:26:15;;;;;;;;;;;;;;;14.03;66.54;99922.91;5033206;28;20372;-78
2022/12/18 09:28:41;;;;;;;;;;;;;;;14.04;64.67;99921.97;5052577;28;19924;-83
2022/12/18 09:31:07;;;;;;;;;;;;;;;14.05;63.42;99926.25;5036521;28;19921;-84
2022/12/18 09:33:33;;;;;;;;;;;;;;;14.06;62.74;99935.00;5036603;28;19916;-85
2022/12/18 09:36:00;;;;;;;;;;;;;;;14.08;62.41;99931.28;5054518;28;20319;-87
2022/12/18 09:38:25;;;;;;;;;;;;;;;14.17;64.22;99928.94;5062387;28;19924;-84
2022/12/18 09:40:52;;;;;;;;;;;;;;;14.24;66.32;99923.13;5038917;28;19975;-82
2022/12/18 09:43:18;;;;;;;;;;;;;;;14.49;66.34;99931.84;5036194;28;19939;-74
2022/12/18 09:45:44;;;;;;;;;;;;;;;14.50;64.49;99928.28;5052855;28;19917;-75
2022/12/18 09:48:18;;;;;;;;;;;;;;;14.41;63.71;99929.78;5035781;28;20423;-73
2022/12/18 09:50:43;;;;;;;;;;;;;;;14.32;63.41;99932.25;5052600;28;19939;-73
2022/12/18 09:53:14;;;;;;;;;;;;;;;14.24;63.24;99951.19;5035388;28;20399;-71
2022/12/18 09:55:40;;;;;;;;;;;;;;;14.11;63.06;99953.88;5053924;28;20003;-73
2022/12/18 09:58:11;;;;;;;;;;;;;;;14.04;64.57;99953.47;5052254;28;20024;-85
2022/12/18 10:00:37;;;;;;;;;;;;;;;14.03;64.09;99951.78;5054426;28;19917;-88
2022/12/18 10:03:12;;;;;;;;;;;;;;;14.00;63.52;99952.00;5035482;28;19917;-87
2022/12/18 10:05:40;;;;;;;;;;;;;;;14.00;64.21;99951.16;5054674;28;19917;-80
2022/12/18 10:08:12;;;;;;;;;;;;;;;13.99;63.46;99949.50;5052155;28;20023;-84
2022/12/18 10:10:40;;;;;;;;;;;;;;;13.97;62.98;99946.97;5061508;28;19927;-87
2022/12/18 10:13:25;;;;;;;;;;;;;;;13.97;62.59;99951.38;5053768;28;19917;-80
2022/12/18 10:16:10;;;;;;;;;;;;;;;14.00;65.57;99952.00;5052265;28;19923;-83
2022/12/18 10:18:38;;;;;;;;;;;;;;;14.10;68.77;99952.19;5053462;28;20370;-78
2022/12/18 10:21:05;;;;;;;;;;;;;;;14.13;67.68;99951.97;5053116;28;19939;-80
2022/12/18 10:23:30;;;;;;;;;;;;;;;14.12;65.62;99960.78;5051103;28;19921;-80
2022/12/18 10:26:05;;;;;;;;;;;;;;;14.14;68.69;99960.66;5051823;28;19917;-79
2022/12/18 10:28:31;;;;;;;;;;;;;;;14.14;66.83;99950.16;5034052;28;19913;-78
2022/12/18 10:30:57;;;;;;;;;;;;;;;14.08;65.83;99967.22;5034951;28;19924;-79
2022/12/18 10:33:23;;;;;;;;;;;;;;;14.02;65.15;99965.84;5034855;28;19920;-81
2022/12/18 10:35:49;;;;;;;;;;;;;;;13.98;65.56;99968.81;5034364;28;19921;-78
2022/12/18 10:38:15;;;;;;;;;;;;;;;13.97;65.22;99962.72;5034840;28;19920;-79
2022/12/18 10:41:11;;;;;;;;;;;;;;;13.91;64.61;99958.72;5052981;28;19975;-79
2022/12/18 10:43:37;;;;;;;;;;;;;;;13.85;64.09;99959.19;5036533;28;20375;-79
2022/12/18 10:46:08;;;;;;;;;;;;;;;13.81;63.91;99960.34;5050311;28;19921;-80
2022/12/18 10:48:40;;;;;;;;;;;;;;;13.76;63.56;99954.59;5050898;28;20019;-82
2022/12/18 10:51:05;;;;;;;;;;;;;;;13.77;65.39;99950.16;5050992;28;19921;-80
2022/12/18 10:53:31;;;;;;;;;;;;;;;13.75;65.05;99963.41;5050839;28;19995;-78
2022/12/18 10:55:59;;;;;;;;;;;;;;;13.74;64.59;99964.31;5051018;28;20307;-80
2022/12/18 10:58:24;;;;;;;;;;;;;;;13.70;63.75;99962.88;5051018;28;20013;-79
2022/12/18 11:01:08;;;;;;;;;;;;;;;13.69;63.29;99962.03;5052428;28;19920;-80
2022/12/18 11:03:38;;;;;;;;;;;;;;;13.66;62.91;99964.03;5052039;28;20011;-77
2022/12/18 11:06:06;;;;;;;;;;;;;;;13.64;62.74;99964.13;5051153;28;19998;-79
2022/12/18 11:08:32;;;;;;;;;;;;;;;13.62;62.68;99962.59;5050784;28;19940;-79
2022/12/18 11:10:57;;;;;;;;;;;;;;;13.66;66.50;99954.41;5050373;28;20383;-81
2022/12/18 11:13:23;;;;;;;;;;;;;;;13.65;65.25;99949.25;5051942;28;19916;-82
2022/12/18 11:15:48;;;;;;;;;;;;;;;13.91;70.08;99953.47;5055096;28;20421;-83
2022/12/18 11:18:17;;;;;;;;;;;;;;;14.01;68.49;99956.31;5051033;28;19963;-84
2022/12/18 11:20:42;;;;;;;;;;;;;;;13.98;66.85;99967.03;5052155;28;19989;-78
2022/12/18 11:23:12;;;;;;;;;;;;;;;13.92;65.91;99972.72;5050404;28;20334;-80
2022/12/18 11:25:38;;;;;;;;;;;;;;;13.84;65.24;99970.63;5050413;28;20391;-77
2022/12/18 11:28:22;;;;;;;;;;;;;;;13.78;65.15;99963.19;5053036;28;19917;-87
2022/12/18 11:30:49;;;;;;;;;;;;;;;13.73;64.50;99965.28;5051891;28;19974;-81
2022/12/18 11:33:23;;;;;;;;;;;;;;;13.70;64.21;99963.72;5036087;28;20045;-82
2022/12/18 11:35:52;;;;;;;;;;;;;;;13.68;63.87;99968.25;5049566;28;20003;-81
2022/12/18 11:38:20;;;;;;;;;;;;;;;13.66;63.62;99964.03;5049084;28;19917;-76
2022/12/18 11:40:47;;;;;;;;;;;;;;;13.62;63.42;99973.06;5064462;28;19917;-85
2022/12/18 11:43:17;;;;;;;;;;;;;;;13.60;63.42;99973.19;5053631;28;19916;-84
2022/12/18 11:45:48;;;;;;;;;;;;;;;13.55;63.09;99972.63;5049985;28;19925;-81
2022/12/18 11:48:37;;;;;;;;;;;;;;;13.52;62.63;99976.34;5047990;28;20024;-80
2022/12/18 11:51:03;;;;;;;;;;;;;;;13.50;62.35;99983.44;4989518;28;19926;-81
2022/12/18 11:53:28;;;;;;;;;;;;;;;13.48;62.31;99981.91;4973600;28;19975;-79
2022/12/18 11:56:00;;;;;;;;;;;;;;;13.44;61.92;99978.66;4973952;28;19924;-79
2022/12/18 11:58:34;;;;;;;;;;;;;;;13.42;61.90;99974.44;4973490;28;19929;-85
2022/12/18 12:01:02;;;;;;;;;;;;;;;13.40;61.76;99985.03;4990179;28;19918;-79
2022/12/18 12:03:37;;;;;;;;;;;;;;;13.36;61.58;99979.16;4989624;28;20304;-80
2022/12/18 12:06:08;;;;;;;;;;;;;;;13.32;61.56;99979.44;4973498;28;19917;-79
2022/12/18 12:08:36;;;;;;;;;;;;;;;13.28;61.49;99973.53;4990110;28;19917;-82
2022/12/18 12:11:04;;;;;;;;;;;;;;;13.27;61.29;99971.06;4989752;28;19921;-79
2022/12/18 12:13:30;;;;;;;;;;;;;;;13.23;61.19;99978.28;4989914;28;19941;-79
2022/12/18 12:15:58;;;;;;;;;;;;;;;13.20;61.25;99974.09;4990024;28;20451;-82
2022/12/18 12:18:28;;;;;;;;;;;;;;;13.19;61.17;99982.91;4990222;28;19922;-82
2022/12/18 12:20:58;;;;;;;;;;;;;;;13.15;61.04;99983.19;4990249;28;19917;-83
2022/12/18 12:23:36;;;;;;;;;;;;;;;13.13;61.12;99993.78;4991115;28;19953;-85
2022/12/18 12:26:04;;;;;;;;;;;;;;;13.11;60.77;99987.81;4990423;28;19917;-80
2022/12/18 12:28:32;;;;;;;;;;;;;;;13.11;60.66;99995.69;5029494;28;19951;-85
2022/12/18 12:31:00;;;;;;;;;;;;;;;13.09;60.84;100001.97;5050938;28;19924;-88
2022/12/18 12:33:44;;;;;;;;;;;;;;;13.07;60.62;99996.81;5051841;28;19937;-83
2022/12/18 12:36:13;;;;;;;;;;;;;;;13.07;60.66;100004.69;5051386;28;20371;-83
2022/12/18 12:38:45;;;;;;;;;;;;;;;13.05;60.23;100009.19;5051075;28;19923;-81
2022/12/18 12:43:58;;;;;;;;;;;;;;;13.16;67.53;99998.81;4976348;28;20399;-77
2022/12/18 12:46:23;;;;;;;;;;;;;;;13.16;64.59;100008.47;4973552;28;19924;-78
2022/12/18 12:48:49;;;;;;;;;;;;;;;13.15;64.04;100004.16;4984997;28;19918;-79
2022/12/18 12:51:18;;;;;;;;;;;;;;;13.12;63.20;100007.81;5009815;28;20319;-77
2022/12/18 12:53:45;;;;;;;;;;;;;;;13.10;62.75;100014.13;5009205;28;19967;-78